Time;durP1;ratioP1;P1;durP2;ratioP2;P2;SDS_P1;SDS_P2;PMS_P1;PMS_P2;Temp;Humidity;BMP_temperature;BMP_pressure;BME280_temperature;BME280_humidity;BME280_pressure;Samples;Min_cycle;Max_cycle;Signal;HPM_P1;HPM_P2
2022/05/27 00:00:18;;;;;;;6.78;2.13;;;14.80;99.90;;;;;;4994108;28;20518;-54
2022/05/27 00:02:46;;;;;;;7.85;2.33;;;14.70;99.90;;;;;;4993936;28;20027;-54
2022/05/27 00:05:12;;;;;;;11.52;2.35;;;14.80;99.90;;;;;;4993732;28;20030;-54
2022/05/27 00:07:38;;;;;;;7.97;2.47;;;14.80;99.90;;;;;;4993929;28;20026;-55
2022/05/27 00:10:04;;;;;;;9.45;2.05;;;14.70;99.90;;;;;;4993839;28;20492;-53
2022/05/27 00:12:30;;;;;;;9.30;2.13;;;14.80;99.90;;;;;;4993835;28;20097;-54
2022/05/27 00:14:56;;;;;;;7.13;2.20;;;14.80;99.90;;;;;;4993603;28;20514;-54
2022/05/27 00:17:21;;;;;;;6.72;2.10;;;14.80;99.90;;;;;;4993856;28;20034;-54
2022/05/27 00:19:47;;;;;;;13.02;2.42;;;14.80;99.90;;;;;;4992422;28;20069;-54
2022/05/27 00:22:13;;;;;;;9.25;2.20;;;14.80;99.90;;;;;;4993693;28;20022;-54
2022/05/27 00:24:39;;;;;;;9.35;2.65;;;14.90;99.90;;;;;;4993748;28;20029;-53
2022/05/27 00:27:08;;;;;;;9.93;2.42;;;14.90;99.90;;;;;;4992168;28;20034;-54
2022/05/27 00:29:34;;;;;;;13.77;2.80;;;14.90;99.90;;;;;;4993410;28;20546;-54
2022/05/27 00:32:00;;;;;;;8.90;2.70;;;14.90;99.90;;;;;;4993796;28;20098;-53
2022/05/27 00:34:26;;;;;;;10.57;2.88;;;14.80;99.90;;;;;;4993215;28;20141;-54
2022/05/27 00:36:51;;;;;;;5.97;2.38;;;14.90;99.90;;;;;;4993198;28;20102;-54
2022/05/27 00:39:17;;;;;;;10.40;2.78;;;14.90;99.90;;;;;;4993429;28;20022;-54
2022/05/27 00:41:42;;;;;;;13.10;3.35;;;14.80;99.90;;;;;;4993586;28;20026;-58
2022/05/27 00:44:08;;;;;;;10.82;3.28;;;14.90;99.90;;;;;;4993934;28;20054;-54
2022/05/27 00:46:35;;;;;;;20.10;3.10;;;14.90;99.90;;;;;;4993729;28;20097;-53
2022/05/27 00:49:11;;;;;;;9.63;2.92;;;14.90;99.90;;;;;;4993261;28;20471;-54
2022/05/27 00:51:51;;;;;;;9.32;2.67;;;14.90;99.90;;;;;;4993321;28;20080;-54
2022/05/27 00:54:21;;;;;;;10.88;3.10;;;15.00;99.90;;;;;;4992907;28;20113;-53
2022/05/27 00:56:54;;;;;;;10.43;2.63;;;14.90;99.90;;;;;;4992929;28;20023;-54
2022/05/27 00:59:30;;;;;;;13.40;3.00;;;14.90;99.90;;;;;;4993221;28;20018;-54
2022/05/27 01:01:56;;;;;;;13.73;3.38;;;14.90;99.90;;;;;;4992970;28;20101;-54
2022/05/27 01:04:23;;;;;;;14.82;2.95;;;15.00;99.90;;;;;;4993098;28;20390;-56
2022/05/27 01:06:48;;;;;;;12.40;3.33;;;15.00;99.90;;;;;;4992737;28;20054;-57
2022/05/27 01:09:14;;;;;;;13.98;3.28;;;15.00;99.90;;;;;;4992675;28;20054;-54
2022/05/27 01:12:06;;;;;;;11.93;2.72;;;15.00;99.90;;;;;;4992534;28;20442;-54
2022/05/27 01:14:53;;;;;;;17.63;3.08;;;15.00;99.90;;;;;;4991287;28;20046;-54
2022/05/27 01:17:38;;;;;;;11.45;3.03;;;15.00;99.90;;;;;;4992769;28;20040;-54
2022/05/27 01:20:29;;;;;;;20.02;3.47;;;15.00;99.90;;;;;;4992967;28;20478;-54
2022/05/27 01:23:25;;;;;;;12.80;3.38;;;15.10;99.90;;;;;;4992605;28;20093;-54
2022/05/27 01:26:12;;;;;;;11.88;2.97;;;15.10;99.90;;;;;;4993171;28;20034;-55
2022/05/27 01:28:48;;;;;;;14.02;2.95;;;15.00;99.90;;;;;;4992504;28;20054;-53
2022/05/27 01:31:33;;;;;;;10.40;2.72;;;15.10;99.90;;;;;;4993010;28;20041;-54
2022/05/27 01:34:08;;;;;;;13.00;3.47;;;15.10;99.90;;;;;;4992791;28;20537;-54
2022/05/27 01:36:44;;;;;;;13.52;3.22;;;15.10;99.90;;;;;;4992223;28;20113;-54
2022/05/27 01:39:40;;;;;;;15.95;3.25;;;15.10;99.90;;;;;;4992460;28;20493;-55
2022/05/27 01:42:08;;;;;;;9.60;2.85;;;15.10;99.90;;;;;;4992471;28;20023;-53
2022/05/27 01:44:41;;;;;;;13.07;3.38;;;15.10;99.90;;;;;;4992242;28;20061;-54
2022/05/27 01:47:15;;;;;;;13.05;3.67;;;15.10;99.90;;;;;;4993306;28;20094;-54
2022/05/27 01:49:45;;;;;;;10.68;2.90;;;15.10;99.90;;;;;;4996629;28;20027;-54
2022/05/27 01:52:31;;;;;;;10.93;3.15;;;15.10;99.90;;;;;;4996390;28;20472;-54
2022/05/27 01:54:59;;;;;;;12.38;3.40;;;15.00;99.90;;;;;;4995680;28;20109;-54
2022/05/27 01:57:36;;;;;;;16.75;3.35;;;15.00;99.90;;;;;;4996347;28;20026;-55
2022/05/27 02:00:10;;;;;;;16.08;3.33;;;15.10;99.90;;;;;;4996295;28;20081;-54
2022/05/27 02:02:40;;;;;;;10.82;3.00;;;15.10;99.90;;;;;;4995905;28;20531;-54
2022/05/27 02:05:22;;;;;;;13.85;3.13;;;15.10;99.90;;;;;;4996222;28;20415;-54
2022/05/27 02:07:58;;;;;;;16.40;3.65;;;15.10;99.90;;;;;;4996066;28;20073;-54
2022/05/27 02:10:38;;;;;;;17.35;3.53;;;15.00;99.90;;;;;;4996133;28;20403;-54
2022/05/27 02:13:12;;;;;;;12.30;3.33;;;15.00;99.90;;;;;;4996397;28;20466;-55
2022/05/27 02:15:42;;;;;;;14.60;3.15;;;15.10;99.90;;;;;;4995834;28;20032;-54
2022/05/27 02:18:29;;;;;;;13.43;3.17;;;15.10;99.90;;;;;;4995830;28;20050;-55
2022/05/27 02:21:00;;;;;;;11.73;2.97;;;15.10;99.90;;;;;;4996156;28;20141;-54
2022/05/27 02:23:31;;;;;;;12.38;3.50;;;15.00;99.90;;;;;;4996127;28;20030;-54
2022/05/27 02:26:00;;;;;;;14.77;3.67;;;15.00;99.90;;;;;;4996379;28;20034;-54
2022/05/27 02:28:34;;;;;;;12.65;2.92;;;15.10;99.90;;;;;;4995642;28;20101;-55
2022/05/27 02:31:05;;;;;;;12.95;3.55;;;15.10;99.90;;;;;;4996028;28;20034;-54
2022/05/27 02:36:29;;;;;;;16.75;3.75;;;15.00;99.90;;;;;;4995590;28;20041;-54
2022/05/27 02:38:54;;;;;;;13.18;3.85;;;15.00;99.90;;;;;;4995392;28;20376;-53
2022/05/27 02:41:45;;;;;;;18.40;3.95;;;15.00;99.90;;;;;;4995523;28;20029;-54
2022/05/27 02:44:41;;;;;;;18.73;3.83;;;14.90;99.90;;;;;;4995411;28;20023;-53
2022/05/27 02:47:25;;;;;;;17.50;4.30;;;14.90;99.90;;;;;;4994286;28;20120;-54
2022/05/27 02:49:58;;;;;;;14.15;3.80;;;15.00;99.90;;;;;;4994152;28;20026;-54
2022/05/27 02:52:47;;;;;;;17.60;4.30;;;15.00;99.90;;;;;;4995363;28;20033;-54
2022/05/27 02:55:36;;;;;;;15.90;3.88;;;15.00;99.90;;;;;;4995425;28;20543;-54
2022/05/27 02:58:02;;;;;;;18.88;4.50;;;15.00;99.90;;;;;;4995337;28;20023;-54
2022/05/27 03:00:31;;;;;;;23.70;4.78;;;15.00;99.90;;;;;;4995085;28;20038;-55
2022/05/27 03:02:59;;;;;;;15.63;4.07;;;15.10;99.90;;;;;;4995061;28;20034;-54
2022/05/27 03:05:49;;;;;;;17.70;4.03;;;15.10;99.90;;;;;;4994906;28;20399;-54
2022/05/27 03:08:23;;;;;;;15.65;4.13;;;15.00;99.90;;;;;;4993794;28;20395;-54
2022/05/27 03:11:09;;;;;;;18.00;4.57;;;14.90;99.90;;;;;;4994936;28;20038;-53
2022/05/27 03:13:56;;;;;;;17.48;4.72;;;14.90;99.90;;;;;;4993783;28;20097;-53
2022/05/27 03:16:25;;;;;;;16.85;4.90;;;14.90;99.90;;;;;;4994703;28;20026;-55
2022/05/27 03:19:15;;;;;;;21.90;4.97;;;14.90;99.90;;;;;;4993631;28;20023;-54
2022/05/27 03:21:50;;;;;;;17.83;4.38;;;14.90;99.90;;;;;;4994815;28;20023;-55
2022/05/27 03:24:52;;;;;;;18.08;4.40;;;15.00;99.90;;;;;;4994569;28;20066;-54
2022/05/27 03:27:44;;;;;;;15.98;5.05;;;15.00;99.90;;;;;;4995050;28;20105;-54
2022/05/27 03:30:18;;;;;;;20.20;5.20;;;14.90;99.90;;;;;;4993411;28;20094;-53
2022/05/27 03:32:51;;;;;;;18.73;5.50;;;14.90;99.90;;;;;;4994852;28;20050;-55
2022/05/27 03:35:52;;;;;;;21.83;5.10;;;15.00;99.90;;;;;;4994453;28;20116;-53
2022/05/27 03:38:28;;;;;;;17.13;4.47;;;15.00;99.90;;;;;;4994662;28;20553;-54
2022/05/27 03:41:19;;;;;;;23.95;5.45;;;15.00;99.90;;;;;;4994355;28;20395;-53
2022/05/27 03:43:45;;;;;;;19.42;4.93;;;14.90;99.90;;;;;;4994034;28;20109;-54
2022/05/27 03:46:11;;;;;;;14.38;4.85;;;14.90;99.90;;;;;;4994290;28;20026;-54
2022/05/27 03:48:37;;;;;;;18.77;5.82;;;15.00;99.90;;;;;;4993930;28;20038;-53
2022/05/27 03:51:26;;;;;;;23.92;5.78;;;14.90;99.90;;;;;;4994576;28;20530;-54
2022/05/27 03:54:03;;;;;;;16.52;6.45;;;14.90;99.90;;;;;;4994121;28;20105;-55
2022/05/27 03:56:32;;;;;;;21.20;5.72;;;14.80;99.90;;;;;;4994328;28;20028;-55
2022/05/27 03:58:58;;;;;;;21.90;5.22;;;14.80;99.90;;;;;;4994183;28;20121;-55
2022/05/27 04:01:26;;;;;;;21.15;5.57;;;14.90;99.90;;;;;;4994133;28;20105;-54
2022/05/27 04:03:52;;;;;;;17.30;5.90;;;14.90;99.90;;;;;;4994055;28;20022;-54
2022/05/27 04:06:18;;;;;;;23.92;6.22;;;14.90;99.90;;;;;;4993868;28;20039;-53
2022/05/27 04:08:44;;;;;;;20.20;5.95;;;14.90;99.90;;;;;;4993523;28;20022;-54
2022/05/27 04:11:10;;;;;;;21.45;6.50;;;14.80;99.90;;;;;;4994095;28;20031;-55
2022/05/27 04:13:35;;;;;;;23.85;7.07;;;14.90;99.90;;;;;;4993536;28;20046;-55
2022/05/27 04:16:01;;;;;;;27.58;8.10;;;14.80;99.90;;;;;;4992529;28;20042;-54
2022/05/27 04:18:27;;;;;;;25.88;8.00;;;14.80;99.90;;;;;;4994018;28;20371;-55
2022/05/27 04:20:53;;;;;;;27.75;8.50;;;14.70;99.90;;;;;;4993841;28;20027;-54
2022/05/27 04:23:19;;;;;;;24.00;8.55;;;14.60;99.90;;;;;;4993872;28;20065;-54
2022/05/27 04:25:49;;;;;;;25.35;8.25;;;14.60;99.90;;;;;;4992510;28;20027;-54
2022/05/27 04:28:15;;;;;;;31.77;9.38;;;14.60;99.90;;;;;;4993367;28;20042;-54
2022/05/27 04:30:41;;;;;;;29.75;10.05;;;14.60;99.90;;;;;;4994129;28;20422;-54
2022/05/27 04:33:08;;;;;;;26.85;9.75;;;14.40;99.90;;;;;;4993151;28;20033;-54
2022/05/27 04:35:34;;;;;;;34.25;10.85;;;14.40;99.90;;;;;;4993395;28;20022;-54
2022/05/27 04:37:59;;;;;;;31.33;11.23;;;14.30;99.90;;;;;;4993022;28;20089;-54
2022/05/27 04:40:25;;;;;;;33.10;11.25;;;14.30;99.90;;;;;;4993579;28;20102;-55
2022/05/27 04:42:50;;;;;;;32.63;11.15;;;14.30;99.90;;;;;;4993170;28;20022;-55
2022/05/27 04:45:16;;;;;;;28.73;10.77;;;14.30;99.90;;;;;;4993084;28;20088;-54
2022/05/27 04:47:42;;;;;;;30.42;11.00;;;14.30;99.90;;;;;;4993054;28;20045;-54
2022/05/27 04:50:11;;;;;;;28.55;10.98;;;14.30;99.90;;;;;;4993194;28;20401;-54
2022/05/27 04:52:37;;;;;;;27.10;11.57;;;14.20;99.90;;;;;;4993095;28;20046;-53
2022/05/27 04:55:07;;;;;;;29.00;11.45;;;14.20;99.90;;;;;;4993328;28;20033;-54
2022/05/27 04:57:46;;;;;;;37.78;12.43;;;14.10;99.90;;;;;;4992968;28;20018;-54
2022/05/27 05:00:25;;;;;;;22.92;11.93;;;14.20;99.90;;;;;;4991934;28;20081;-55
2022/05/27 05:02:51;;;;;;;26.83;11.60;;;14.20;99.90;;;;;;4992955;28;20027;-55
2022/05/27 05:05:20;;;;;;;30.27;12.70;;;14.10;99.90;;;;;;4992350;28;20030;-55
2022/05/27 05:07:48;;;;;;;35.22;12.88;;;14.00;99.90;;;;;;4992903;28;20030;-56
2022/05/27 05:10:17;;;;;;;34.90;14.10;;;14.00;99.90;;;;;;4992654;28;20027;-55
2022/05/27 05:12:43;;;;;;;29.15;14.07;;;14.00;99.90;;;;;;4992666;28;20089;-57
2022/05/27 05:15:10;;;;;;;29.50;15.07;;;13.90;99.90;;;;;;4992422;28;20045;-58
2022/05/27 05:17:36;;;;;;;31.55;15.13;;;13.90;99.90;;;;;;4992176;28;20472;-58
2022/05/27 05:20:04;;;;;;;30.08;15.80;;;14.00;99.90;;;;;;4992791;28;20073;-57
2022/05/27 05:22:30;;;;;;;33.38;16.38;;;14.00;99.90;;;;;;4992282;28;20023;-56
2022/05/27 05:24:56;;;;;;;30.67;17.23;;;14.10;99.90;;;;;;4992731;28;20491;-55
2022/05/27 05:27:23;;;;;;;35.05;18.05;;;14.20;99.90;;;;;;4992680;28;20068;-57
2022/05/27 05:29:51;;;;;;;35.95;17.60;;;14.30;99.90;;;;;;4992577;28;20027;-56
2022/05/27 05:32:17;;;;;;;31.45;17.63;;;14.30;99.90;;;;;;4992064;28;20038;-56
2022/05/27 05:34:43;;;;;;;33.78;17.40;;;14.30;99.90;;;;;;4991609;28;20027;-55
2022/05/27 05:37:08;;;;;;;28.20;16.85;;;14.30;99.90;;;;;;4991777;28;20077;-54
2022/05/27 05:39:36;;;;;;;33.53;19.02;;;14.30;99.90;;;;;;4991789;28;20019;-55
2022/05/27 05:42:04;;;;;;;32.60;20.13;;;14.40;99.90;;;;;;4990186;28;20387;-55
2022/05/27 05:44:30;;;;;;;45.47;20.65;;;14.40;99.90;;;;;;4991652;28;20052;-54
2022/05/27 05:46:57;;;;;;;40.58;20.05;;;14.50;99.90;;;;;;4991485;28;20038;-54
2022/05/27 05:49:23;;;;;;;45.03;21.00;;;14.50;99.90;;;;;;4991548;28;20101;-54
2022/05/27 05:51:50;;;;;;;33.20;20.27;;;14.60;99.90;;;;;;4991587;28;20470;-54
2022/05/27 05:54:15;;;;;;;39.17;20.10;;;14.60;99.90;;;;;;4991424;28;20089;-54
2022/05/27 05:56:41;;;;;;;35.88;19.30;;;14.70;99.90;;;;;;5006731;28;20036;-54
2022/05/27 05:59:07;;;;;;;31.88;18.80;;;14.70;99.90;;;;;;4991502;28;20109;-53
2022/05/27 06:01:33;;;;;;;36.75;19.63;;;14.90;99.90;;;;;;4990361;28;20065;-53
2022/05/27 06:03:58;;;;;;;34.97;18.38;;;15.00;99.90;;;;;;4990143;28;20028;-53
2022/05/27 06:06:24;;;;;;;35.33;17.83;;;15.10;99.90;;;;;;4991414;28;20034;-54
2022/05/27 06:08:50;;;;;;;29.13;17.63;;;15.00;99.90;;;;;;4991447;28;20521;-55
2022/05/27 06:11:15;;;;;;;33.35;17.88;;;15.10;99.90;;;;;;4991507;28;20033;-53
2022/05/27 06:13:41;;;;;;;28.23;16.50;;;15.10;99.90;;;;;;4990961;28;20047;-54
2022/05/27 06:16:09;;;;;;;34.05;17.67;;;15.10;99.90;;;;;;4991292;28;20065;-54
2022/05/27 06:18:35;;;;;;;30.77;15.30;;;15.30;99.90;;;;;;4991099;28;20022;-54
2022/05/27 06:21:01;;;;;;;27.65;14.73;;;15.50;99.90;;;;;;4991227;28;20025;-54
2022/05/27 06:23:29;;;;;;;26.50;13.35;;;15.80;99.90;;;;;;4991138;28;20030;-54
2022/05/27 06:26:03;;;;;;;23.88;11.48;;;16.00;99.90;;;;;;5006071;28;20085;-54
2022/05/27 06:36:44;;;;;;;22.60;9.10;;;16.50;99.90;;;;;;4994773;28;20104;-54
2022/05/27 06:39:10;;;;;;;20.17;7.25;;;16.60;99.90;;;;;;4993057;28;20423;-54
2022/05/27 06:41:36;;;;;;;16.08;6.65;;;16.60;99.90;;;;;;4994343;28;20026;-54
2022/05/27 06:44:03;;;;;;;20.38;6.32;;;16.70;99.90;;;;;;4994392;28;20026;-54
2022/05/27 06:46:29;;;;;;;16.15;5.90;;;16.80;99.90;;;;;;4994139;28;20509;-54
2022/05/27 06:48:55;;;;;;;17.65;6.40;;;16.90;99.90;;;;;;4993970;28;20018;-54
2022/05/27 06:51:21;;;;;;;15.48;5.55;;;16.90;99.90;;;;;;4994030;28;20546;-54
2022/05/27 06:53:47;;;;;;;18.17;5.70;;;17.10;99.90;;;;;;4994258;28;20034;-54
2022/05/27 06:56:14;;;;;;;11.10;4.00;;;17.80;99.90;;;;;;4993915;28;20505;-54
2022/05/27 06:58:40;;;;;;;17.63;4.63;;;18.90;99.90;;;;;;4993756;28;20467;-54
2022/05/27 07:01:07;;;;;;;10.70;3.83;;;19.30;99.90;;;;;;4994533;28;20026;-55
2022/05/27 07:03:34;;;;;;;13.55;3.65;;;20.00;99.90;;;;;;4994071;28;20183;-54
2022/05/27 07:06:00;;;;;;;15.70;3.95;;;19.90;99.90;;;;;;4993858;28;20451;-54
2022/05/27 07:08:25;;;;;;;11.63;3.85;;;19.40;99.90;;;;;;4993464;28;20065;-54
2022/05/27 07:10:51;;;;;;;11.07;3.85;;;19.10;99.90;;;;;;4993752;28;20696;-54
2022/05/27 07:13:18;;;;;;;13.68;4.35;;;19.40;99.90;;;;;;4993253;28;20054;-54
2022/05/27 07:15:44;;;;;;;13.52;4.00;;;19.30;99.90;;;;;;4993797;28;20035;-54
2022/05/27 07:18:11;;;;;;;11.00;3.53;;;19.40;99.90;;;;;;4993864;28;20073;-54
2022/05/27 07:20:37;;;;;;;11.35;3.40;;;19.70;99.90;;;;;;4993950;28;20084;-54
2022/05/27 07:23:04;;;;;;;10.00;3.20;;;20.20;99.90;;;;;;4992146;28;20121;-54
2022/05/27 07:25:34;;;;;;;7.43;2.83;;;21.30;99.90;;;;;;4993408;28;20030;-54
2022/05/27 07:28:00;;;;;;;7.13;2.28;;;22.10;99.90;;;;;;4993951;28;20038;-54
2022/05/27 07:30:26;;;;;;;7.10;2.10;;;22.30;99.90;;;;;;4993507;28;20030;-54
2022/05/27 07:32:52;;;;;;;7.85;2.28;;;22.90;99.90;;;;;;4992955;28;20030;-54
2022/05/27 07:35:17;;;;;;;9.68;2.17;;;22.70;99.90;;;;;;4992955;28;20034;-54
2022/05/27 07:37:43;;;;;;;5.00;1.98;;;22.80;99.90;;;;;;4993160;28;20026;-54
2022/05/27 07:40:09;;;;;;;6.30;1.92;;;23.70;99.90;;;;;;4993500;28;20061;-54
2022/05/27 07:42:35;;;;;;;8.48;2.60;;;23.20;99.90;;;;;;4993338;28;20571;-54
2022/05/27 07:45:01;;;;;;;6.68;1.90;;;22.00;99.90;;;;;;4992454;28;20113;-54
2022/05/27 07:47:27;;;;;;;4.57;1.70;;;21.60;99.90;;;;;;4993310;28;20080;-54
2022/05/27 07:49:52;;;;;;;3.15;1.25;;;21.70;99.90;;;;;;4993659;28;20097;-54
2022/05/27 07:52:18;;;;;;;4.85;1.45;;;22.10;99.90;;;;;;4992657;28;20088;-54
2022/05/27 07:54:43;;;;;;;6.43;1.92;;;22.80;99.90;;;;;;4992850;28;20390;-54
2022/05/27 07:57:25;;;;;;;4.10;1.08;;;23.00;99.90;;;;;;4993016;28;20092;-54
2022/05/27 07:59:54;;;;;;;2.65;1.00;;;23.80;99.90;;;;;;4992037;28;20023;-54
2022/05/27 08:02:23;;;;;;;3.00;1.10;;;23.70;99.90;;;;;;4992614;28;20084;-54
2022/05/27 08:04:49;;;;;;;3.45;1.50;;;23.80;99.90;;;;;;4993048;28;20073;-54
2022/05/27 08:07:15;;;;;;;3.35;1.13;;;24.10;99.90;;;;;;4992637;28;20034;-54
2022/05/27 08:09:41;;;;;;;5.03;1.40;;;24.00;99.60;;;;;;4992764;28;20541;-55
2022/05/27 08:12:07;;;;;;;4.55;1.23;;;23.60;99.90;;;;;;4992460;28;20125;-54
2022/05/27 08:14:33;;;;;;;5.40;1.65;;;23.30;99.90;;;;;;4992166;28;20413;-54
2022/05/27 08:17:00;;;;;;;4.93;1.40;;;23.00;99.90;;;;;;4992613;28;20054;-54
2022/05/27 08:19:26;;;;;;;6.07;1.42;;;22.70;99.90;;;;;;4993324;28;20018;-54
2022/05/27 08:21:52;;;;;;;4.78;1.38;;;23.00;99.90;;;;;;4993087;28;20023;-54
2022/05/27 08:24:17;;;;;;;3.75;1.35;;;23.70;99.20;;;;;;4992259;28;20015;-54
2022/05/27 08:26:43;;;;;;;3.92;1.17;;;23.30;99.70;;;;;;4992319;28;20034;-54
2022/05/27 08:29:10;;;;;;;3.35;1.30;;;22.90;99.90;;;;;;4992304;28;20061;-55
2022/05/27 08:31:37;;;;;;;5.57;1.10;;;23.10;99.90;;;;;;4992438;28;20019;-54
2022/05/27 08:39:35;;;;;;;4.13;1.40;;;21.50;99.90;;;;;;4991474;28;20166;-54
2022/05/27 08:42:25;;;;;;;2.10;1.13;;;21.70;99.90;;;;;;4992457;28;20550;-54
2022/05/27 08:45:26;;;;;;;3.50;1.55;;;22.30;99.90;;;;;;4990771;28;20491;-55
2022/05/27 08:47:57;;;;;;;2.72;1.05;;;23.30;98.10;;;;;;4992606;28;20030;-54
2022/05/27 08:50:38;;;;;;;2.50;1.20;;;23.10;98.50;;;;;;4992341;28;20567;-54
2022/05/27 08:53:26;;;;;;;4.25;1.00;;;23.20;97.60;;;;;;4992318;28;20026;-54
2022/05/27 09:01:38;;;;;;;3.30;1.30;;;24.50;95.10;;;;;;4992188;28;20026;-54
2022/05/27 09:04:11;;;;;;;1.98;1.02;;;24.10;95.60;;;;;;4991774;28;20113;-54
2022/05/27 09:07:15;;;;;;;2.95;1.10;;;24.00;95.20;;;;;;4991495;28;20030;-54
2022/05/27 09:09:41;;;;;;;2.45;1.10;;;24.50;93.70;;;;;;4991831;28;20223;-54
2022/05/27 09:12:37;;;;;;;6.28;1.40;;;25.40;93.80;;;;;;5006935;28;20125;-54
2022/05/27 09:15:18;;;;;;;4.65;1.25;;;25.30;94.00;;;;;;4991697;28;20411;-55
2022/05/27 09:17:49;;;;;;;5.47;1.48;;;25.20;93.70;;;;;;4991997;28;20050;-55
2022/05/27 09:20:36;;;;;;;4.50;1.85;;;24.60;93.80;;;;;;4991852;28;20054;-54
2022/05/27 09:23:20;;;;;;;4.43;1.40;;;24.10;95.00;;;;;;4991686;28;20018;-54
2022/05/27 09:26:06;;;;;;;2.90;1.35;;;24.60;94.40;;;;;;4991989;28;20101;-54
2022/05/27 09:28:57;;;;;;;4.30;1.38;;;24.10;95.00;;;;;;4992269;28;20050;-55
2022/05/27 09:31:47;;;;;;;2.30;1.30;;;23.90;95.30;;;;;;4991659;28;20041;-54
2022/05/27 09:34:14;;;;;;;5.05;1.52;;;22.80;95.80;;;;;;4991288;28;20052;-54
2022/05/27 09:36:44;;;;;;;4.05;1.30;;;23.20;95.80;;;;;;4991538;28;20058;-54
2022/05/27 09:39:13;;;;;;;3.33;1.45;;;24.30;94.50;;;;;;4991528;28;20018;-54
2022/05/27 09:41:53;;;;;;;6.80;1.58;;;24.60;93.90;;;;;;4991378;28;20026;-55
2022/05/27 09:44:42;;;;;;;3.47;1.48;;;25.10;93.60;;;;;;4991258;28;20024;-54
2022/05/27 09:47:08;;;;;;;3.70;1.48;;;25.60;93.00;;;;;;4994320;28;20101;-54
2022/05/27 09:49:34;;;;;;;6.03;1.52;;;25.10;93.10;;;;;;4991281;28;20442;-54
2022/05/27 09:52:01;;;;;;;7.78;1.73;;;24.90;93.60;;;;;;4991828;28;20062;-54
2022/05/27 09:54:47;;;;;;;3.20;1.55;;;25.00;93.60;;;;;;4991164;28;20026;-54
2022/05/27 09:57:16;;;;;;;3.70;1.45;;;24.40;93.20;;;;;;4991504;28;20077;-55
2022/05/27 09:59:46;;;;;;;6.40;1.98;;;25.10;92.80;;;;;;4991537;28;20105;-54
2022/05/27 10:02:34;;;;;;;4.28;1.58;;;25.20;91.80;;;;;;4991367;28;20101;-54
2022/05/27 10:05:22;;;;;;;3.83;1.73;;;25.60;90.80;;;;;;4993639;28;20035;-54
2022/05/27 10:07:53;;;;;;;9.63;2.10;;;25.80;90.00;;;;;;4991585;28;20077;-54
2022/05/27 10:10:30;;;;;;;6.43;1.83;;;25.50;90.80;;;;;;4995110;28;20574;-54
2022/05/27 10:13:12;;;;;;;6.07;1.52;;;25.30;91.00;;;;;;4994659;28;20069;-54
2022/05/27 10:15:38;;;;;;;4.40;1.50;;;24.50;90.50;;;;;;4995049;28;20041;-54
2022/05/27 10:18:21;;;;;;;6.20;1.80;;;24.30;90.80;;;;;;4994687;28;20027;-54
2022/05/27 10:20:57;;;;;;;;;;;24.70;90.80;;;;;;4995164;28;20105;-54
2022/05/27 10:23:29;;;;;;;4.68;1.90;;;24.20;90.20;;;;;;4994391;28;19947;-54
2022/05/27 10:25:54;;;;;;;9.45;1.60;;;24.90;90.60;;;;;;4994640;28;20109;-54
2022/05/27 10:28:30;;;;;;;4.78;1.65;;;25.60;87.50;;;;;;4994600;28;20130;-54
2022/05/27 10:31:13;;;;;;;4.82;1.50;;;25.50;87.20;;;;;;4994960;28;20453;-54
2022/05/27 10:33:43;;;;;;;7.20;1.63;;;25.30;87.30;;;;;;4994599;28;20514;-54
2022/05/27 10:36:37;;;;;;;8.93;2.15;;;24.80;88.60;;;;;;4994432;28;20495;-54
2022/05/27 10:39:12;;;;;;;4.40;1.63;;;24.90;90.30;;;;;;4994576;28;20018;-54
2022/05/27 10:41:50;;;;;;;7.90;1.90;;;24.10;89.70;;;;;;4994563;28;20431;-54
2022/05/27 10:44:48;;;;;;;5.90;1.67;;;23.70;90.20;;;;;;4994123;28;20034;-54
2022/05/27 10:47:33;;;;;;;5.25;1.80;;;23.00;90.50;;;;;;5001948;28;20031;-54
2022/05/27 10:50:23;;;;;;;5.30;1.80;;;22.60;90.90;;;;;;4993390;28;20057;-54
2022/05/27 10:53:19;;;;;;;6.30;1.80;;;23.50;90.70;;;;;;4994529;28;20042;-54
2022/05/27 10:56:00;;;;;;;5.28;1.92;;;24.70;87.10;;;;;;4994162;28;20042;-54
2022/05/27 11:04:09;;;;;;;7.85;1.90;;;23.10;89.00;;;;;;4993954;28;20130;-54
2022/05/27 11:06:59;;;;;;;6.20;1.70;;;24.00;87.90;;;;;;4993570;28;20026;-54
2022/05/27 11:10:01;;;;;;;6.13;1.95;;;24.90;86.00;;;;;;4994547;28;20038;-54
2022/05/27 11:12:27;;;;;;;;;;;25.70;84.40;;;;;;4994445;28;20715;-53
2022/05/27 11:15:13;;;;;;;6.45;1.92;;;25.70;80.80;;;;;;4993774;28;19917;-53
2022/05/27 11:17:55;;;;;;;5.43;1.75;;;26.30;80.40;;;;;;5008726;28;20022;-53
2022/05/27 11:20:41;;;;;;;7.85;2.05;;;26.10;80.70;;;;;;4993118;28;20101;-53
2022/05/27 11:23:24;;;;;;;5.63;2.15;;;25.20;82.10;;;;;;4993912;28;20434;-53
2022/05/27 11:26:08;;;;;;;4.90;1.85;;;24.90;82.90;;;;;;4993641;28;20122;-53
2022/05/27 11:28:40;;;;;;;6.70;1.88;;;25.60;82.20;;;;;;4993646;28;20032;-53
2022/05/27 11:31:11;;;;;;;3.75;1.48;;;26.20;78.60;;;;;;4993934;28;20475;-53
2022/05/27 11:34:08;;;;;;;5.50;1.58;;;26.40;77.60;;;;;;4993722;28;20030;-53
2022/05/27 11:36:37;;;;;;;7.20;1.90;;;26.80;78.30;;;;;;4993148;28;20023;-52
2022/05/27 11:40:00;;;;;;;6.03;2.20;;;26.10;77.10;;;;;;4993355;28;20019;-52
2022/05/27 11:42:55;;;;;;;7.97;2.63;;;26.30;80.40;;;;;;5002564;28;20030;-52
2022/05/27 11:45:31;;;;;;;9.05;2.80;;;25.60;82.30;;;;;;4992879;28;20549;-52
2022/05/27 11:48:15;;;;;;;8.95;2.88;;;25.00;86.10;;;;;;4993225;28;20080;-52
2022/05/27 11:51:10;;;;;;;7.65;2.70;;;25.80;83.60;;;;;;4993635;28;20257;-53
2022/05/27 11:54:08;;;;;;;9.60;3.25;;;25.90;83.20;;;;;;4992913;28;20022;-53
2022/05/27 11:56:42;;;;;;;10.45;3.33;;;25.60;82.90;;;;;;4991541;28;20035;-52
2022/05/27 11:59:42;;;;;;;11.30;3.50;;;24.40;84.20;;;;;;4992949;28;20101;-53
2022/05/27 12:02:24;;;;;;;8.73;3.15;;;24.90;85.20;;;;;;4992904;28;20037;-52
2022/05/27 12:05:05;;;;;;;8.85;3.05;;;25.10;82.00;;;;;;4992778;28;20030;-52
2022/05/27 12:07:38;;;;;;;6.20;2.50;;;24.70;84.60;;;;;;4992474;28;20503;-52
2022/05/27 12:10:20;;;;;;;8.07;2.78;;;24.80;82.50;;;;;;4992889;28;20439;-55
2022/05/27 12:13:04;;;;;;;10.32;3.00;;;25.80;81.90;;;;;;4992433;28;20289;-53
2022/05/27 12:15:36;;;;;;;8.52;2.75;;;25.90;78.50;;;;;;4992686;28;20065;-53
2022/05/27 12:18:10;;;;;;;;;;;26.30;80.50;;;;;;4993139;28;20101;-53
2022/05/27 12:20:42;;;;;;;6.55;2.85;;;27.40;77.00;;;;;;4992660;28;19912;-53
2022/05/27 12:23:11;;;;;;;8.25;2.90;;;27.40;77.60;;;;;;4992648;28;20030;-53
2022/05/27 12:25:49;;;;;;;10.30;2.60;;;27.80;77.70;;;;;;4992698;28;20573;-53
2022/05/27 12:28:16;;;;;;;5.55;2.80;;;27.70;74.90;;;;;;4992574;28;20026;-53
2022/05/27 12:30:44;;;;;;;6.13;2.42;;;26.70;75.10;;;;;;4992261;28;20081;-53
2022/05/27 12:33:14;;;;;;;7.63;2.95;;;25.70;76.80;;;;;;4991570;28;20109;-53
2022/05/27 12:35:39;;;;;;;8.60;2.38;;;26.00;76.80;;;;;;4991115;28;20030;-53
2022/05/27 12:38:43;;;;;;;5.60;2.25;;;25.40;77.40;;;;;;4992275;28;20076;-53
2022/05/27 12:41:10;;;;;;;6.70;2.30;;;25.30;77.90;;;;;;4992245;28;20080;-53
2022/05/27 12:43:38;;;;;;;8.70;2.53;;;25.30;76.50;;;;;;4992316;28;20038;-53
2022/05/27 12:46:04;;;;;;;6.75;2.35;;;25.60;76.60;;;;;;4992077;28;20026;-53
2022/05/27 12:48:35;;;;;;;7.72;2.33;;;25.20;76.90;;;;;;4991861;28;20041;-53
2022/05/27 12:51:15;;;;;;;5.93;2.20;;;24.40;80.70;;;;;;4992210;28;20034;-53
2022/05/27 12:53:44;;;;;;;9.07;2.28;;;25.30;77.20;;;;;;4992044;28;20308;-53
2022/05/27 13:02:32;;;;;;;7.40;1.98;;;25.20;76.00;;;;;;4992182;28;20089;-53
2022/05/27 13:05:04;;;;;;;10.38;2.63;;;25.10;74.20;;;;;;4991636;28;20403;-53
2022/05/27 13:07:35;;;;;;;6.60;2.38;;;25.80;73.70;;;;;;4991637;28;20026;-53
2022/05/27 13:10:16;;;;;;;9.27;1.90;;;26.10;72.50;;;;;;4992124;28;20072;-53
2022/05/27 13:12:44;;;;;;;5.63;2.20;;;26.90;71.90;;;;;;4991631;28;20030;-53
2022/05/27 13:15:14;;;;;;;7.47;2.35;;;27.30;71.10;;;;;;4991634;28;20042;-53
2022/05/27 13:17:49;;;;;;;8.13;2.55;;;27.80;68.80;;;;;;4991813;28;20076;-53
2022/05/27 13:20:20;;;;;;;8.07;2.80;;;27.40;70.00;;;;;;4991748;28;20030;-53
2022/05/27 13:22:58;;;;;;;7.57;2.08;;;27.20;69.70;;;;;;4991591;28;20101;-53
2022/05/27 13:25:36;;;;;;;10.23;2.33;;;27.10;70.10;;;;;;4991573;28;20030;-53
2022/05/27 13:28:08;;;;;;;7.15;2.40;;;27.50;71.60;;;;;;4991456;28;20026;-53
2022/05/27 13:30:56;;;;;;;;;;;27.90;68.70;;;;;;4992201;28;20490;-53
2022/05/27 13:33:33;;;;;;;8.63;2.70;;;27.20;69.80;;;;;;4991632;28;19980;-53
2022/05/27 13:36:02;;;;;;;7.15;2.25;;;26.80;70.70;;;;;;4990099;28;20026;-53
2022/05/27 13:38:39;;;;;;;7.05;2.22;;;26.80;70.60;;;;;;5006317;28;20105;-53
2022/05/27 13:41:09;;;;;;;9.48;2.42;;;26.50;69.20;;;;;;4991255;28;20487;-53
2022/05/27 13:43:41;;;;;;;6.95;2.75;;;26.00;70.20;;;;;;4993466;28;20077;-53
2022/05/27 13:46:08;;;;;;;7.57;2.37;;;26.20;71.20;;;;;;4995510;28;20498;-53